Bookmark and Share
Track history (hours):
 

Hoegh Berlin

Last reported at 2014-Apr-23 18:33 UTC. Time now 2014-Apr-23 19:21 UTC.
Position N 40°42' W 074°09'.

Length 228 m; draft 7.9 m.

Type: Cargo ship. MMSI: 311019100.

NotesDate/timePositionNaut miles runAvg speedWind from/ knotsBaromVisibWave heightAir tempDewpointWater temp
2014-Apr-23 18:33N 40°42' W 074°09'0 0.0
2014-Apr-23 17:33N 40°42' W 074°09'0 0.0
2014-Apr-23 16:33N 40°42' W 074°09'0 0.0
2014-Apr-23 15:33N 40°42' W 074°09'0 0.0
2014-Apr-23 14:33N 40°42' W 074°09'0 0.0
2014-Apr-23 13:33N 40°42' W 074°09'0 0.0
2014-Apr-23 12:33N 40°42' W 074°09'0 0.0
2014-Apr-23 11:33N 40°42' W 074°09'0 0.3
2014-Apr-23 10:33N 40°42' W 074°08'1 1.5
2014-Apr-23 09:33N 40°40' W 074°08'4 4.2
2014-Apr-23 08:33N 40°38' W 074°03'1110.8
2014-Apr-23 07:33N 40°29' W 073°55'7 7.5
2014-Apr-23 06:33N 40°25' W 073°48'3210.5
2014-Apr-23 03:33N 39°53' W 073°43'37 9.1
2014-Apr-22 23:33N 39°18' W 073°30'1 1.3
2014-Apr-22 22:33N 39°17' W 073°30'1 1.4
2014-Apr-22 21:33N 39°15' W 073°31'2 2.4
2014-Apr-22 20:33N 39°15' W 073°34'3 2.7
2014-Apr-22 19:23N 39°14' W 073°38'1 1.2
2014-Apr-22 18:33N 39°13' W 073°38'1 1.2
2014-Apr-22 17:33N 39°12' W 073°37'1 1.4
2014-Apr-22 16:33N 39°11' W 073°36'1 1.4
2014-Apr-22 15:30N 39°10' W 073°35'3 2.4
2014-Apr-22 14:11N 39°13' W 073°36'1 1.1
2014-Apr-22 13:33N 39°12' W 073°36'1 1.2
2014-Apr-22 12:33N 39°12' W 073°34'1 1.0
2014-Apr-22 11:32N 39°11' W 073°33'1 0.8
2014-Apr-22 10:33N 39°10' W 073°33'1 1.1
2014-Apr-22 09:33N 39°10' W 073°34'1512.6
2014-Apr-22 08:21N 39°03' W 073°51'2814.8
2014-Apr-22 06:26N 38°48' W 074°22'1212.0
2014-Apr-22 05:27N 38°45' W 074°37'9 9.8
2014-Apr-22 04:33N 38°46' W 074°48'3110.2
2014-Apr-22 01:33N 39°09' W 075°14'1817.8
2014-Apr-22 00:32N 39°23' W 075°29'35 2.9
2014-Apr-21 12:25N 39°54' W 075°08'0 0.0
2014-Apr-21 10:07N 39°54' W 075°08'61 3.0
2014-Apr-20 13:28N 39°19' W 076°13'1112.3
2014-Apr-20 12:32N 39°09' W 076°21'1110.9
2014-Apr-20 11:33N 39°14' W 076°33'1 1.4
2014-Apr-20 10:31N 39°15' W 076°35'0 0.0
2014-Apr-20 09:31N 39°15' W 076°35'0 0.0
2014-Apr-20 08:31N 39°15' W 076°35'0 0.0
2014-Apr-20 07:31N 39°15' W 076°35'0 0.0
2014-Apr-20 06:31N 39°15' W 076°35'0 0.0
2014-Apr-20 05:34N 39°15' W 076°35'0 0.0
2014-Apr-20 04:33N 39°15' W 076°35'0 0.0
2014-Apr-20 03:33N 39°15' W 076°35'0 0.0
2014-Apr-20 02:33N 39°15' W 076°35'0 0.0
2014-Apr-20 01:33N 39°15' W 076°35'0 0.0
2014-Apr-20 00:33N 39°15' W 076°35'0 0.0
2014-Apr-19 23:33N 39°15' W 076°35'0 0.0
2014-Apr-19 22:33N 39°15' W 076°35'0 0.0
2014-Apr-19 21:32N 39°15' W 076°35'0 0.0
2014-Apr-19 20:33N 39°15' W 076°35'0 0.0
2014-Apr-19 19:33N 39°15' W 076°35'0 0.0
2014-Apr-19 18:29N 39°15' W 076°35'0 0.0
2014-Apr-19 17:32N 39°15' W 076°35'0 0.0
2014-Apr-19 16:32N 39°15' W 076°35'0 0.0
2014-Apr-19 15:32N 39°15' W 076°35'0 0.0
2014-Apr-19 14:32N 39°15' W 076°35'0 0.0
2014-Apr-19 13:32N 39°15' W 076°35'0 0.0
2014-Apr-19 12:32N 39°15' W 076°35'0 0.0
2014-Apr-19 11:32N 39°15' W 076°35'0 0.0
2014-Apr-19 10:32N 39°15' W 076°35'0 0.0
2014-Apr-19 09:33N 39°15' W 076°35'4 4.1
2014-Apr-19 08:34N 39°12' W 076°31'1211.7
2014-Apr-19 07:33N 39°02' W 076°23'1716.5
2014-Apr-19 06:34N 38°46' W 076°26'9116.8
2014-Apr-19 01:09N 37°16' W 076°07'1315.0
2014-Apr-19 00:19N 37°04' W 076°05'21 9.7
2014-Apr-18 22:10N 36°50' W 075°46'6 9.1
2014-Apr-18 21:33N 36°47' W 075°40'1512.6
2014-Apr-18 20:22N 36°40' W 075°23'1011.7
2014-Apr-18 19:33N 36°33' W 075°16'  

Dump ship's entire track history

sailing weather and tide predictions

Hoegh Berlin — C6XQ4 — position and weather